createdAt,value
2018-10-17T00:03:43.126Z,9.40
2018-10-17T00:08:34.037Z,9.40
2018-10-17T00:13:24.928Z,9.30
2018-10-17T00:18:15.815Z,9.30
2018-10-17T00:23:06.762Z,9.20
2018-10-17T00:27:57.604Z,9.20
2018-10-17T00:32:48.513Z,9.10
2018-10-17T00:37:40.176Z,9.00
2018-10-17T00:42:31.095Z,9.00
2018-10-17T00:47:22.609Z,9.00
2018-10-17T00:52:13.588Z,8.90
2018-10-17T00:57:04.488Z,8.90
2018-10-17T01:01:55.405Z,8.80
2018-10-17T01:06:46.337Z,8.80
2018-10-17T01:11:37.253Z,8.80
2018-10-17T01:16:28.916Z,8.70
2018-10-17T01:21:19.833Z,8.70
2018-10-17T01:26:11.511Z,8.60
2018-10-17T01:31:03.266Z,8.60
2018-10-17T01:35:54.108Z,8.50
2018-10-17T01:40:45.030Z,8.50
2018-10-17T01:45:36.717Z,8.40
2018-10-17T01:50:28.702Z,8.40
2018-10-17T01:55:19.640Z,8.40
2018-10-17T02:00:10.547Z,8.40
2018-10-17T02:05:02.109Z,8.30
2018-10-17T02:09:52.996Z,8.30
2018-10-17T02:14:43.932Z,8.30
2018-10-17T02:19:34.864Z,8.20
2018-10-17T02:24:25.778Z,8.10
2018-10-17T02:29:16.819Z,8.10
2018-10-17T02:34:07.648Z,8.10
2018-10-17T02:38:59.313Z,8.00
2018-10-17T02:43:50.225Z,8.00
2018-10-17T02:48:41.142Z,8.00
2018-10-17T02:53:32.805Z,7.90
2018-10-17T02:58:23.697Z,7.90
2018-10-17T03:03:14.617Z,7.90
2018-10-17T03:08:05.539Z,7.80
2018-10-17T03:12:57.221Z,7.70
2018-10-17T03:17:48.154Z,7.70
2018-10-17T03:22:39.057Z,7.70
2018-10-17T03:27:30.703Z,7.60
2018-10-17T03:32:21.737Z,7.60
2018-10-17T03:37:12.702Z,7.60
2018-10-17T03:42:03.517Z,7.60
2018-10-17T03:46:54.521Z,7.60
2018-10-17T03:51:45.727Z,7.50
2018-10-17T03:56:36.644Z,7.50
2018-10-17T04:01:27.624Z,7.50
2018-10-17T04:06:18.549Z,7.40
2018-10-17T04:11:09.518Z,7.40
2018-10-17T04:16:00.410Z,7.40
2018-10-17T04:20:51.328Z,7.40
2018-10-17T04:25:42.277Z,7.30
2018-10-17T04:30:33.912Z,7.20
2018-10-17T04:35:24.831Z,7.20
2018-10-17T04:40:16.522Z,7.20
2018-10-17T04:45:07.438Z,7.20
2018-10-17T04:49:58.357Z,7.20
2018-10-17T04:54:49.274Z,7.10
2018-10-17T04:59:40.193Z,7.10
2018-10-17T05:04:31.195Z,7.10
2018-10-17T05:09:22.807Z,7.00
2018-10-17T05:14:13.730Z,7.00
2018-10-17T05:19:04.719Z,7.00
2018-10-17T05:23:55.621Z,7.00
2018-10-17T05:28:46.545Z,7.00
2018-10-17T05:33:37.522Z,7.00
2018-10-17T05:38:28.407Z,6.90
2018-10-17T05:43:19.341Z,6.90
2018-10-17T05:48:10.381Z,6.90
2018-10-17T05:53:02.117Z,6.90
2018-10-17T05:57:53.782Z,6.80
2018-10-17T06:02:44.722Z,6.80
2018-10-17T06:07:36.378Z,6.80
2018-10-17T06:12:27.309Z,6.80
2018-10-17T06:17:18.301Z,6.80
2018-10-17T06:22:09.973Z,6.80
2018-10-17T06:27:00.894Z,6.80
2018-10-17T06:31:52.575Z,6.80
2018-10-17T06:36:44.250Z,6.80
2018-10-17T06:41:35.958Z,6.80
2018-10-17T06:46:28.136Z,6.80
2018-10-17T06:51:19.182Z,6.80
2018-10-17T06:56:10.038Z,6.90
2018-10-17T07:01:00.952Z,6.90
2018-10-17T07:05:52.622Z,7.00
2018-10-17T07:10:43.573Z,7.00
2018-10-17T07:15:34.656Z,7.10
2018-10-17T07:20:25.574Z,7.10
2018-10-17T07:25:16.527Z,7.20
2018-10-17T07:30:07.506Z,7.30
2018-10-17T07:34:58.463Z,7.40
2018-10-17T07:39:49.441Z,7.50
2018-10-17T07:44:40.443Z,7.70
2018-10-17T07:49:31.369Z,7.90
2018-10-17T07:54:22.300Z,8.00
2018-10-17T07:59:13.251Z,8.20
2018-10-17T08:04:04.145Z,8.40
2018-10-17T08:08:55.061Z,8.60
2018-10-17T08:13:45.999Z,8.80
2018-10-17T08:18:36.949Z,8.90
2018-10-17T08:23:27.853Z,9.10
2018-10-17T08:28:18.774Z,9.40
2018-10-17T08:33:09.718Z,9.50
2018-10-17T08:38:00.655Z,9.70
2018-10-17T08:42:51.592Z,9.90
2018-10-17T08:47:43.270Z,10.30
2018-10-17T08:52:34.924Z,10.50
2018-10-17T08:57:25.824Z,10.50
2018-10-17T09:02:16.820Z,10.70
2018-10-17T09:07:07.652Z,10.90
2018-10-17T09:11:58.616Z,11.10
2018-10-17T09:16:49.614Z,11.30
2018-10-17T09:21:40.654Z,11.50
2018-10-17T09:26:31.508Z,11.70
2018-10-17T09:31:22.517Z,12.00
2018-10-17T09:36:13.479Z,12.20
2018-10-17T09:41:05.134Z,12.50
2018-10-17T09:45:56.092Z,12.50
2018-10-17T09:50:46.956Z,12.70
2018-10-17T09:55:37.876Z,12.90
2018-10-17T10:00:28.783Z,13.10
2018-10-17T10:05:19.703Z,13.30
2018-10-17T10:10:10.710Z,13.60
2018-10-17T10:15:01.594Z,13.80
2018-10-17T10:19:52.510Z,14.00
2018-10-17T10:24:43.547Z,14.20
2018-10-17T10:29:34.486Z,14.40
2018-10-17T10:34:26.076Z,14.80
2018-10-17T10:39:17.024Z,14.80
2018-10-17T10:44:08.012Z,15.20
2018-10-17T10:48:59.672Z,15.90
2018-10-17T10:53:50.531Z,15.90
2018-10-17T10:58:41.544Z,16.30
2018-10-17T11:03:32.422Z,16.90
2018-10-17T11:08:23.348Z,17.30
2018-10-17T11:13:14.293Z,17.90
2018-10-17T11:18:05.204Z,18.40
2018-10-17T11:22:56.124Z,19.00
2018-10-17T11:27:47.068Z,19.60
2018-10-17T11:32:38.738Z,20.90
2018-10-17T11:37:29.742Z,20.80
2018-10-17T11:42:20.592Z,21.40
2018-10-17T11:47:12.273Z,22.50
2018-10-17T11:52:03.563Z,22.40
2018-10-17T11:56:55.203Z,23.30
2018-10-17T12:01:46.181Z,23.30
2018-10-17T12:06:37.211Z,23.90
2018-10-17T12:11:28.105Z,24.20
2018-10-17T12:16:19.951Z,24.90
2018-10-17T12:21:11.049Z,24.90
2018-10-17T12:26:01.923Z,25.10
2018-10-17T12:30:52.835Z,25.30
2018-10-17T12:35:44.518Z,25.40
2018-10-17T12:40:36.354Z,25.40
2018-10-17T12:45:27.112Z,25.30
2018-10-17T12:50:18.126Z,25.30
2018-10-17T12:55:09.030Z,25.20
2018-10-17T13:00:00.014Z,25.10
2018-10-17T13:04:50.976Z,25.00
2018-10-17T13:09:42.602Z,24.90
2018-10-17T13:14:33.518Z,24.80
2018-10-17T13:19:24.439Z,24.80
2018-10-17T13:24:15.394Z,24.60
2018-10-17T13:29:06.364Z,24.50
2018-10-17T13:33:57.268Z,24.40
2018-10-17T13:38:48.931Z,24.00
2018-10-17T13:43:39.831Z,23.90
2018-10-17T13:48:30.995Z,23.80
2018-10-17T13:53:22.675Z,23.30
2018-10-17T13:58:14.342Z,23.10
2018-10-17T14:03:05.270Z,22.90
2018-10-17T14:07:56.353Z,22.80
2018-10-17T14:12:47.273Z,22.60
2018-10-17T14:17:38.936Z,22.20
2018-10-17T14:22:30.633Z,22.10
2018-10-17T14:27:22.293Z,21.90
2018-10-17T14:32:13.245Z,21.90
2018-10-17T14:37:04.169Z,21.70
2018-10-17T14:41:55.101Z,21.50
2018-10-17T14:46:46.013Z,21.40
2018-10-17T14:51:36.945Z,21.20
2018-10-17T14:56:28.644Z,20.90
2018-10-17T15:01:20.360Z,20.70
2018-10-17T15:06:11.309Z,20.70
2018-10-17T15:11:03.229Z,20.40
2018-10-17T15:15:53.922Z,20.40
2018-10-17T15:20:44.830Z,20.30
2018-10-17T15:25:35.743Z,20.20
2018-10-17T15:30:26.672Z,20.00
2018-10-17T15:35:18.340Z,19.60
2018-10-17T15:40:09.273Z,19.60
2018-10-17T15:45:00.190Z,19.40
2018-10-17T15:49:51.117Z,19.30
2018-10-17T15:54:42.016Z,19.10
2018-10-17T15:59:32.962Z,18.90
2018-10-17T16:04:23.877Z,18.60
2018-10-17T16:09:15.536Z,18.20
2018-10-17T16:14:06.558Z,18.20
2018-10-17T16:18:57.424Z,18.00
2018-10-17T16:23:48.333Z,17.80
2018-10-17T16:28:39.289Z,17.50
2018-10-17T16:33:30.250Z,17.30
2018-10-17T16:38:21.201Z,17.10
2018-10-17T16:43:12.134Z,16.90
2018-10-17T16:48:03.089Z,16.70
2018-10-17T16:52:53.976Z,16.50
2018-10-17T16:57:45.637Z,16.10
2018-10-17T17:02:36.557Z,16.10
2018-10-17T17:07:28.221Z,15.80
2018-10-17T17:12:19.161Z,15.70
2018-10-17T17:17:10.065Z,15.60
2018-10-17T17:22:01.708Z,15.20
2018-10-17T17:26:52.671Z,15.20
2018-10-17T17:31:43.615Z,15.10
2018-10-17T17:36:34.607Z,14.90
2018-10-17T17:41:25.560Z,14.70
2018-10-17T17:46:16.498Z,14.60
2018-10-17T17:51:08.206Z,14.30
2018-10-17T17:55:59.864Z,14.10
2018-10-17T18:00:50.905Z,14.10
2018-10-17T18:05:41.827Z,14.00
2018-10-17T18:10:32.757Z,13.80
2018-10-17T18:15:23.674Z,13.60
2018-10-17T18:20:14.595Z,13.60
2018-10-17T18:25:05.496Z,13.50
2018-10-17T18:29:56.410Z,13.30
2018-10-17T18:34:48.073Z,13.10
2018-10-17T18:39:39.102Z,13.10
2018-10-17T18:44:29.996Z,13.00
2018-10-17T18:49:20.958Z,12.80
2018-10-17T18:54:11.885Z,12.70
2018-10-17T18:59:03.548Z,12.50
2018-10-17T19:03:54.472Z,12.50
2018-10-17T19:08:45.451Z,12.40
2018-10-17T19:13:36.384Z,12.30
2018-10-17T19:23:25.828Z,12.00
2018-10-17T19:28:16.766Z,12.00
2018-10-17T19:33:07.717Z,12.00
2018-10-17T19:37:59.378Z,11.80
2018-10-17T19:42:50.312Z,11.70
2018-10-17T19:47:42.953Z,11.70
2018-10-17T19:52:33.904Z,11.60
2018-10-17T19:57:24.886Z,11.50
2018-10-17T20:02:15.940Z,11.50
2018-10-17T20:07:07.500Z,11.30
2018-10-17T20:11:59.239Z,11.20
2018-10-17T20:16:50.153Z,11.20
2018-10-17T20:21:42.535Z,11.10
2018-10-17T20:26:33.450Z,11.00
2018-10-17T20:31:24.347Z,11.00
2018-10-17T20:36:15.986Z,10.80
2018-10-17T20:41:08.388Z,10.80
2018-10-17T20:45:59.312Z,10.70
2018-10-17T20:50:50.233Z,10.70
2018-10-17T20:55:41.455Z,10.60
2018-10-17T21:00:32.369Z,10.60
2018-10-17T21:05:23.317Z,10.50
2018-10-17T21:10:14.975Z,10.30
2018-10-17T21:20:13.484Z,10.20
2018-10-17T21:25:04.969Z,10.20
2018-10-17T21:29:56.100Z,10.20
2018-10-17T21:34:47.089Z,10.10
2018-10-17T21:39:39.514Z,10.10
2018-10-17T21:44:30.438Z,10.00
2018-10-17T21:49:22.118Z,9.90
2018-10-17T21:54:13.787Z,9.80
2018-10-17T21:59:05.576Z,9.80
2018-10-17T22:03:58.785Z,9.70
2018-10-17T22:08:49.803Z,9.70
2018-10-17T22:13:40.724Z,9.60
2018-10-17T22:18:31.668Z,9.60
2018-10-17T22:23:22.928Z,9.50
2018-10-17T22:28:14.597Z,9.40
2018-10-17T22:33:06.428Z,9.40
2018-10-17T22:37:57.412Z,9.40
2018-10-17T22:42:48.332Z,9.30
2018-10-17T22:47:40.823Z,9.30
2018-10-17T22:52:31.737Z,9.20
2018-10-17T22:57:22.659Z,9.20
2018-10-17T23:02:13.675Z,9.10
2018-10-17T23:07:06.577Z,9.00
2018-10-17T23:11:57.497Z,9.00
2018-10-17T23:16:49.154Z,8.90
2018-10-17T23:21:40.071Z,8.90
2018-10-17T23:26:30.974Z,8.90
2018-10-17T23:31:22.556Z,8.80
2018-10-17T23:36:13.841Z,8.80
2018-10-17T23:41:04.749Z,8.70
2018-10-17T23:45:55.766Z,8.70
2018-10-17T23:50:46.683Z,8.70
2018-10-17T23:55:37.633Z,8.60
